createdAt,value
2019-01-09T00:00:18.026Z,7.4
2019-01-09T00:01:19.550Z,7.4
2019-01-09T00:02:21.085Z,7.5
2019-01-09T00:03:22.602Z,7.6
2019-01-09T00:04:24.120Z,7.6
2019-01-09T00:05:29.878Z,7.7
2019-01-09T00:06:31.421Z,7.7
2019-01-09T00:07:32.987Z,7.7
2019-01-09T00:08:34.530Z,7.8
2019-01-09T00:09:35.741Z,7.8
2019-01-09T00:10:37.275Z,7.7
2019-01-09T00:11:38.804Z,7.7
2019-01-09T00:12:40.176Z,7.7
2019-01-09T00:13:41.714Z,7.7
2019-01-09T00:14:43.095Z,7.7
2019-01-09T00:15:44.655Z,7.7
2019-01-09T00:16:45.742Z,7.7
2019-01-09T00:17:47.246Z,7.7
2019-01-09T00:18:48.771Z,7.8
2019-01-09T00:19:50.285Z,7.8
2019-01-09T00:20:51.776Z,7.7
2019-01-09T00:21:53.315Z,7.7
2019-01-09T00:22:54.706Z,7.7
2019-01-09T00:23:56.280Z,7.7
2019-01-09T00:24:57.896Z,7.7
2019-01-09T00:25:59.436Z,7.7
2019-01-09T00:27:00.816Z,7.7
2019-01-09T00:28:02.347Z,7.7
2019-01-09T00:29:03.976Z,7.7
2019-01-09T00:30:05.345Z,7.6
2019-01-09T00:31:06.875Z,7.6
2019-01-09T00:32:08.284Z,7.6
2019-01-09T00:33:09.649Z,7.6
2019-01-09T00:34:10.876Z,7.6
2019-01-09T00:35:12.084Z,7.6
2019-01-09T00:36:13.315Z,7.6
2019-01-09T00:37:14.694Z,7.6
2019-01-09T00:38:16.229Z,7.6
2019-01-09T00:39:17.598Z,7.6
2019-01-09T00:40:19.146Z,7.6
2019-01-09T00:41:20.706Z,7.6
2019-01-09T00:42:22.246Z,7.6
2019-01-09T00:43:23.874Z,7.6
2019-01-09T00:44:25.423Z,7.6
2019-01-09T00:45:26.487Z,7.6
2019-01-09T00:46:27.848Z,7.5
2019-01-09T00:47:29.398Z,7.5
2019-01-09T00:48:30.775Z,7.5
2019-01-09T00:49:32.296Z,7.5
2019-01-09T00:50:33.817Z,7.5
2019-01-09T00:51:35.194Z,7.5
2019-01-09T00:52:36.714Z,7.5
2019-01-09T00:53:38.228Z,7.5
2019-01-09T00:54:39.755Z,7.5
2019-01-09T00:55:41.283Z,7.5
2019-01-09T00:56:42.677Z,7.5
2019-01-09T00:57:44.084Z,7.5
2019-01-09T00:58:45.456Z,7.5
2019-01-09T00:59:46.817Z,7.4
2019-01-09T01:00:48.179Z,7.4
2019-01-09T01:01:49.708Z,7.4
2019-01-09T01:02:51.245Z,7.4
2019-01-09T01:03:52.775Z,7.4
2019-01-09T01:04:53.986Z,7.4
2019-01-09T01:05:55.523Z,7.4
2019-01-09T01:06:57.051Z,7.4
2019-01-09T01:07:58.270Z,7.4
2019-01-09T01:08:59.496Z,7.4
2019-01-09T01:10:01.163Z,7.5
2019-01-09T01:11:02.555Z,7.5
2019-01-09T01:12:04.098Z,7.5
2019-01-09T01:13:05.652Z,7.5
2019-01-09T01:14:07.068Z,7.5
2019-01-09T01:15:08.605Z,7.5
2019-01-09T01:16:10.015Z,7.4
2019-01-09T01:17:11.539Z,7.4
2019-01-09T01:18:12.899Z,7.4
2019-01-09T01:19:14.427Z,7.4
2019-01-09T01:20:15.944Z,7.4
2019-01-09T01:21:17.314Z,7.4
2019-01-09T01:22:18.840Z,7.4
2019-01-09T01:23:20.376Z,7.3
2019-01-09T01:24:21.757Z,7.3
2019-01-09T01:25:23.292Z,7.3
2019-01-09T01:26:24.668Z,7.3
2019-01-09T01:27:26.035Z,7.3
2019-01-09T01:28:27.792Z,7.3
2019-01-09T01:29:29.314Z,7.3
2019-01-09T01:30:30.854Z,7.3
2019-01-09T01:31:32.219Z,7.3
2019-01-09T01:32:33.638Z,7.3
2019-01-09T01:33:35.155Z,7.2
2019-01-09T01:34:36.676Z,7.2
2019-01-09T01:35:37.896Z,7.3
2019-01-09T01:36:39.412Z,7.3
2019-01-09T01:37:40.965Z,7.3
2019-01-09T01:38:42.494Z,7.2
2019-01-09T01:39:43.857Z,7.2
2019-01-09T01:40:45.377Z,7.2
2019-01-09T01:41:46.910Z,7.2
2019-01-09T01:42:48.442Z,7.2
2019-01-09T01:43:49.969Z,7.2
2019-01-09T01:44:51.337Z,7.2
2019-01-09T01:45:52.873Z,7.2
2019-01-09T01:46:54.234Z,7.2
2019-01-09T01:47:55.304Z,7.2
2019-01-09T01:48:56.835Z,7.2
2019-01-09T01:49:58.220Z,7.3
2019-01-09T01:50:59.444Z,7.3
2019-01-09T01:52:01.076Z,7.3
2019-01-09T01:53:02.622Z,7.4
2019-01-09T01:54:04.014Z,7.4
2019-01-09T01:55:05.379Z,7.4
2019-01-09T01:56:06.887Z,7.5
2019-01-09T01:57:08.414Z,7.5
2019-01-09T01:58:09.793Z,7.5
2019-01-09T01:59:11.172Z,7.6
2019-01-09T02:00:12.532Z,7.6
2019-01-09T02:01:13.899Z,7.7
2019-01-09T02:02:15.444Z,7.7
2019-01-09T02:03:16.981Z,7.8
2019-01-09T02:04:18.344Z,7.6
2019-01-09T02:05:19.864Z,7.6
2019-01-09T02:06:21.386Z,7.6
2019-01-09T02:07:22.907Z,7.6
2019-01-09T02:08:24.446Z,7.5
2019-01-09T02:09:25.976Z,7.4
2019-01-09T02:10:27.503Z,7.3
2019-01-09T02:11:29.354Z,7.2
2019-01-09T02:12:30.737Z,7.2
2019-01-09T02:13:31.973Z,7.2
2019-01-09T02:14:33.338Z,7.2
2019-01-09T02:15:34.705Z,7.2
2019-01-09T02:16:36.219Z,7.2
2019-01-09T02:17:37.816Z,7.2
2019-01-09T02:18:39.392Z,7.2
2019-01-09T02:19:40.787Z,7.2
2019-01-09T02:20:42.314Z,7.1
2019-01-09T02:21:43.834Z,7.1
2019-01-09T02:22:45.350Z,7.1
2019-01-09T02:23:46.577Z,7.1
2019-01-09T02:24:48.123Z,7.1
2019-01-09T02:25:49.496Z,7.1
2019-01-09T02:26:51.010Z,7.1
2019-01-09T02:27:52.617Z,7.1
2019-01-09T02:28:53.848Z,7.1
2019-01-09T02:29:55.405Z,7.1
2019-01-09T02:30:56.812Z,7.1
2019-01-09T02:31:58.197Z,7.1
2019-01-09T02:32:59.573Z,7.1
2019-01-09T02:34:01.121Z,7.1
2019-01-09T02:35:02.797Z,7.1
2019-01-09T02:36:14.532Z,7.1
2019-01-09T02:37:16.055Z,7.1
2019-01-09T02:38:17.428Z,7.1
2019-01-09T02:39:18.663Z,7.1
2019-01-09T02:40:20.061Z,7.1
2019-01-09T02:41:21.461Z,7.1
2019-01-09T02:42:22.835Z,7.1
2019-01-09T02:43:24.359Z,7.1
2019-01-09T02:44:33.759Z,7.1
2019-01-09T02:45:35.132Z,7.1
2019-01-09T02:46:36.358Z,7.1
2019-01-09T02:47:37.874Z,7.1
2019-01-09T02:48:39.400Z,7.1
2019-01-09T02:49:40.799Z,7.1
2019-01-09T02:50:42.179Z,7.2
2019-01-09T02:51:43.709Z,7.2
2019-01-09T02:52:45.264Z,7.1
2019-01-09T02:53:46.888Z,7.2
2019-01-09T02:54:48.145Z,7.2
2019-01-09T02:55:49.417Z,7.2
2019-01-09T02:56:50.618Z,7.2
2019-01-09T02:57:58.573Z,7.2
2019-01-09T02:59:00.109Z,7.2
2019-01-09T03:00:01.776Z,7.2
2019-01-09T03:01:03.173Z,7.2
2019-01-09T03:02:04.708Z,7.2
2019-01-09T03:03:06.246Z,7.2
2019-01-09T03:04:07.760Z,7.2
2019-01-09T03:05:09.024Z,7.2
2019-01-09T03:06:10.572Z,7.2
2019-01-09T03:07:12.103Z,7.2
2019-01-09T03:08:13.649Z,7.3
2019-01-09T03:09:15.202Z,7.3
2019-01-09T03:10:16.743Z,7.4
2019-01-09T03:11:18.281Z,7.4
2019-01-09T03:12:19.669Z,7.4
2019-01-09T03:13:21.209Z,7.4
2019-01-09T03:14:22.754Z,7.4
2019-01-09T03:15:24.329Z,7.5
2019-01-09T03:16:25.713Z,7.5
2019-01-09T03:17:27.356Z,7.5
2019-01-09T03:18:29.698Z,7.5
2019-01-09T03:19:31.240Z,7.5
2019-01-09T03:20:32.641Z,7.5
2019-01-09T03:21:34.245Z,7.5
2019-01-09T03:22:35.626Z,7.5
2019-01-09T03:23:37.183Z,7.5
2019-01-09T03:24:38.855Z,7.5
2019-01-09T03:25:40.416Z,7.5
2019-01-09T03:26:41.933Z,7.6
2019-01-09T03:27:43.189Z,7.6
2019-01-09T03:28:44.549Z,7.6
2019-01-09T03:29:46.085Z,7.6
2019-01-09T03:30:47.660Z,7.6
2019-01-09T03:31:49.107Z,7.7
2019-01-09T03:32:50.707Z,7.7
2019-01-09T03:33:52.088Z,7.7
2019-01-09T03:34:53.616Z,7.7
2019-01-09T03:35:55.005Z,7.8
2019-01-09T03:36:56.535Z,7.8
2019-01-09T03:37:58.087Z,7.8
2019-01-09T03:38:59.614Z,7.8
2019-01-09T03:40:01.187Z,7.8
2019-01-09T03:41:02.768Z,7.8
2019-01-09T03:42:04.301Z,7.8
2019-01-09T03:43:05.705Z,7.8
2019-01-09T03:44:07.073Z,7.8
2019-01-09T03:45:08.297Z,7.8
2019-01-09T03:46:09.711Z,7.8
2019-01-09T03:47:11.083Z,7.8
2019-01-09T03:48:12.282Z,7.8
2019-01-09T03:49:13.518Z,7.7
2019-01-09T03:50:15.053Z,7.7
2019-01-09T03:51:16.275Z,7.7
2019-01-09T03:52:17.645Z,7.7
2019-01-09T03:53:19.213Z,7.7
2019-01-09T03:54:20.832Z,7.7
2019-01-09T03:55:22.395Z,7.7
2019-01-09T03:56:23.949Z,7.7
2019-01-09T03:57:25.155Z,7.7
2019-01-09T03:58:26.679Z,7.7
2019-01-09T03:59:27.883Z,7.7
2019-01-09T04:00:29.460Z,7.7
2019-01-09T04:01:30.977Z,7.8
2019-01-09T04:02:32.536Z,7.8
2019-01-09T04:03:34.284Z,7.8
2019-01-09T04:04:35.812Z,7.8
2019-01-09T04:05:37.226Z,7.8
2019-01-09T04:06:43.818Z,7.8
2019-01-09T04:07:45.365Z,7.7
2019-01-09T04:08:46.885Z,7.7
2019-01-09T04:09:48.105Z,7.6
2019-01-09T04:10:49.515Z,7.5
2019-01-09T04:11:51.037Z,7.4
2019-01-09T04:12:52.563Z,7.3
2019-01-09T04:13:53.936Z,7.2
2019-01-09T04:14:55.753Z,7.2
2019-01-09T04:15:57.373Z,7.2
2019-01-09T04:16:59.098Z,7.2
2019-01-09T04:18:00.707Z,7.2
2019-01-09T04:19:02.296Z,7.2
2019-01-09T04:20:03.895Z,7.2
2019-01-09T04:21:05.499Z,7.2
2019-01-09T04:22:07.062Z,7.3
2019-01-09T04:23:08.309Z,7.4
2019-01-09T04:24:09.696Z,7.4
2019-01-09T04:25:11.245Z,7.6
2019-01-09T04:26:12.474Z,7.7
2019-01-09T04:27:13.881Z,7.8
2019-01-09T04:28:15.297Z,7.9
2019-01-09T04:29:16.688Z,7.9
2019-01-09T04:30:17.923Z,7.3
2019-01-09T04:31:19.159Z,7.5
2019-01-09T04:32:20.216Z,7.6
2019-01-09T04:33:21.979Z,7.8
2019-01-09T04:34:23.573Z,7.9
2019-01-09T04:35:25.167Z,7.9
2019-01-09T04:36:26.595Z,7.2
2019-01-09T04:37:28.101Z,7.4
2019-01-09T04:38:29.634Z,7.7
2019-01-09T04:39:31.170Z,7.9
2019-01-09T04:40:32.405Z,7.9
2019-01-09T04:41:33.774Z,7.9
2019-01-09T04:42:35.405Z,7.9
2019-01-09T04:43:36.778Z,7.9
2019-01-09T04:44:38.161Z,7.9
2019-01-09T04:45:39.383Z,7.9
2019-01-09T04:46:40.760Z,7.9
2019-01-09T04:47:42.135Z,7.9
2019-01-09T04:48:43.675Z,7.8
2019-01-09T04:49:44.877Z,7.8
2019-01-09T04:50:46.408Z,7.8
2019-01-09T04:51:47.935Z,7.8
2019-01-09T04:52:49.479Z,7.8
2019-01-09T04:53:50.998Z,7.7
2019-01-09T04:54:52.524Z,7.7
2019-01-09T04:55:53.742Z,7.6
2019-01-09T04:56:55.286Z,7.6
2019-01-09T04:57:56.497Z,7.5
2019-01-09T04:58:58.109Z,7.4
2019-01-09T04:59:59.675Z,7.4
2019-01-09T05:01:01.205Z,7.3
2019-01-09T05:02:02.436Z,7.3
2019-01-09T05:03:03.809Z,7.3
2019-01-09T05:04:05.336Z,7.2
2019-01-09T05:05:06.883Z,7.2
2019-01-09T05:06:08.411Z,7.2
2019-01-09T05:07:09.795Z,7.2
2019-01-09T05:08:11.309Z,7.2
2019-01-09T05:09:12.684Z,7.2
2019-01-09T05:10:14.069Z,7.2
2019-01-09T05:11:15.441Z,7.2
2019-01-09T05:12:16.978Z,7.2
2019-01-09T05:13:18.228Z,7.2
2019-01-09T05:14:19.631Z,7.2
2019-01-09T05:15:21.183Z,7.2
2019-01-09T05:16:22.716Z,7.2
2019-01-09T05:17:24.239Z,7.2
2019-01-09T05:18:25.687Z,7.2
2019-01-09T05:19:27.235Z,7.2
2019-01-09T05:20:28.625Z,7.2
2019-01-09T05:21:30.151Z,7.2
2019-01-09T05:22:31.643Z,7.2
2019-01-09T05:23:32.868Z,7.2
2019-01-09T05:24:34.235Z,7.2
2019-01-09T05:25:35.603Z,7.2
2019-01-09T05:26:37.131Z,7.2
2019-01-09T05:27:38.691Z,7.2
2019-01-09T05:28:40.234Z,7.3
2019-01-09T05:29:41.797Z,7.2
2019-01-09T05:30:43.185Z,7.2
2019-01-09T05:31:44.417Z,7.2
2019-01-09T05:32:45.958Z,7.2
2019-01-09T05:33:47.501Z,7.2
2019-01-09T05:34:49.029Z,7.2
2019-01-09T05:35:50.558Z,7.2
2019-01-09T05:36:52.106Z,7.2
2019-01-09T05:37:53.631Z,7.2
2019-01-09T05:38:55.186Z,7.2
2019-01-09T05:39:56.546Z,7.2
2019-01-09T05:40:57.955Z,7.2
2019-01-09T05:41:59.484Z,7.2
2019-01-09T05:43:00.866Z,7.2
2019-01-09T05:44:02.387Z,7.2
2019-01-09T05:45:03.924Z,7.2
2019-01-09T05:46:05.235Z,7.2
2019-01-09T05:47:06.615Z,7.3
2019-01-09T05:48:07.991Z,7.3
2019-01-09T05:49:09.386Z,7.2
2019-01-09T05:50:10.969Z,7.2
2019-01-09T05:51:12.516Z,7.2
2019-01-09T05:52:13.906Z,7.2
2019-01-09T05:53:15.427Z,7.2
2019-01-09T05:54:16.805Z,7.2
2019-01-09T05:55:18.345Z,7.2
2019-01-09T05:56:19.868Z,7.1
2019-01-09T05:57:21.413Z,7.2
2019-01-09T05:58:22.962Z,7.2
2019-01-09T05:59:24.355Z,7.1
2019-01-09T06:00:25.877Z,7.1
2019-01-09T06:01:27.413Z,7.1
2019-01-09T06:02:29.435Z,7.1
2019-01-09T06:03:30.826Z,7.1
2019-01-09T06:04:32.046Z,7.1
2019-01-09T06:05:33.596Z,7.2
2019-01-09T06:06:35.006Z,7.1
2019-01-09T06:07:36.368Z,7.1
2019-01-09T06:08:37.915Z,7.2
2019-01-09T06:09:39.468Z,7.2
2019-01-09T06:10:40.846Z,7.2
2019-01-09T06:11:42.378Z,7.2
2019-01-09T06:12:43.904Z,7.2
2019-01-09T06:13:45.524Z,7.2
2019-01-09T06:14:46.899Z,7.2
2019-01-09T06:15:48.291Z,7.3
2019-01-09T06:16:49.702Z,7.3
2019-01-09T06:17:51.236Z,7.3
2019-01-09T06:18:52.804Z,7.4
2019-01-09T06:19:54.167Z,7.4
2019-01-09T06:20:55.644Z,7.5
2019-01-09T06:21:57.054Z,7.5
2019-01-09T06:22:58.627Z,7.6
2019-01-09T06:24:00.188Z,7.7
2019-01-09T06:25:01.855Z,7.7
2019-01-09T06:26:03.473Z,7.8
2019-01-09T06:27:05.043Z,7.8
2019-01-09T06:28:06.581Z,7.8
2019-01-09T06:29:08.128Z,7.8
2019-01-09T06:30:11.533Z,7.8
2019-01-09T06:31:13.092Z,7.9
2019-01-09T06:32:14.633Z,7.9
2019-01-09T06:33:16.023Z,7.9
2019-01-09T06:34:17.564Z,7.9
2019-01-09T06:35:19.101Z,7.9
2019-01-09T06:36:20.482Z,7.9
2019-01-09T06:37:29.140Z,7.8
2019-01-09T06:38:30.359Z,7.8
2019-01-09T06:39:31.838Z,7.8
2019-01-09T06:40:33.355Z,7.8
2019-01-09T06:41:34.965Z,7.8
2019-01-09T06:42:36.179Z,7.8
2019-01-09T06:43:37.547Z,7.8
2019-01-09T06:44:39.489Z,7.8
2019-01-09T06:45:40.946Z,7.8
2019-01-09T06:46:42.498Z,7.7
2019-01-09T06:47:44.053Z,7.7
2019-01-09T06:48:45.579Z,7.8
2019-01-09T06:49:46.981Z,7.8
2019-01-09T06:50:48.517Z,7.8
2019-01-09T06:51:49.899Z,7.8
2019-01-09T06:52:51.446Z,7.9
2019-01-09T06:53:53.131Z,7.9
2019-01-09T06:54:54.842Z,7.9
2019-01-09T06:55:56.649Z,7.9
2019-01-09T06:56:58.194Z,7.9
2019-01-09T06:57:59.738Z,7.9
2019-01-09T06:59:01.391Z,7.9
2019-01-09T07:00:03.016Z,7.9
2019-01-09T07:01:04.396Z,7.9
2019-01-09T07:02:05.947Z,7.9
2019-01-09T07:03:07.486Z,7.9
2019-01-09T07:04:09.000Z,7.9
2019-01-09T07:05:10.559Z,7.9
2019-01-09T07:06:11.957Z,7.9
2019-01-09T07:07:13.328Z,7.9
2019-01-09T07:08:14.866Z,7.9
2019-01-09T07:09:16.425Z,7.9
2019-01-09T07:10:17.947Z,7.9
2019-01-09T07:11:19.552Z,7.9
2019-01-09T07:12:20.917Z,7.9
2019-01-09T07:13:22.289Z,7.8
2019-01-09T07:14:23.861Z,7.8
2019-01-09T07:15:25.236Z,7.8
2019-01-09T07:16:26.597Z,7.8
2019-01-09T07:17:27.973Z,7.8
2019-01-09T07:18:29.036Z,7.8
2019-01-09T07:19:30.678Z,7.8
2019-01-09T07:20:32.224Z,7.8
2019-01-09T07:21:33.600Z,7.8
2019-01-09T07:22:34.815Z,7.9
2019-01-09T07:23:36.195Z,7.9
2019-01-09T07:24:37.725Z,7.9
2019-01-09T07:25:39.115Z,7.9
2019-01-09T07:26:40.619Z,7.9
2019-01-09T07:27:42.154Z,7.9
2019-01-09T07:28:43.688Z,7.9
2019-01-09T07:29:45.055Z,7.9
2019-01-09T07:30:46.587Z,7.9
2019-01-09T07:31:48.121Z,7.3
2019-01-09T07:32:49.493Z,7.4
2019-01-09T07:33:51.033Z,7.5
2019-01-09T07:34:52.428Z,7.6
2019-01-09T07:35:53.961Z,7.7
2019-01-09T07:36:55.496Z,7.7
2019-01-09T07:37:57.061Z,7.8
2019-01-09T07:38:58.681Z,7.8
2019-01-09T07:40:00.103Z,7.7
2019-01-09T07:41:01.718Z,7.7
2019-01-09T07:42:03.112Z,7.7
2019-01-09T07:43:04.520Z,7.7
2019-01-09T07:44:06.064Z,7.6
2019-01-09T07:45:07.444Z,7.5
2019-01-09T07:46:08.816Z,7.5
2019-01-09T07:47:10.188Z,7.4
2019-01-09T07:48:11.570Z,7.3
2019-01-09T07:49:13.098Z,7.2
2019-01-09T07:50:14.615Z,7.2
2019-01-09T07:51:15.848Z,7.1
2019-01-09T07:52:17.389Z,7.2
2019-01-09T07:53:18.984Z,7.1
2019-01-09T07:54:20.518Z,7.1
2019-01-09T07:55:21.908Z,7.2
2019-01-09T07:56:23.450Z,7.2
2019-01-09T07:57:24.996Z,7.2
2019-01-09T07:58:26.536Z,7.2
2019-01-09T07:59:28.182Z,7.2
2019-01-09T08:00:29.752Z,7.2
2019-01-09T08:01:31.356Z,7.2
2019-01-09T08:02:32.882Z,7.2
2019-01-09T08:03:34.446Z,7.3
2019-01-09T08:04:35.839Z,7.3
2019-01-09T08:05:37.375Z,7.4
2019-01-09T08:06:38.772Z,7.5
2019-01-09T08:07:39.986Z,7.6
2019-01-09T08:08:41.528Z,7.7
2019-01-09T08:09:43.078Z,7.8
2019-01-09T08:10:44.620Z,7.9
2019-01-09T08:11:47.945Z,7.8
2019-01-09T08:12:49.580Z,7.9
2019-01-09T08:13:51.121Z,7.6
2019-01-09T08:14:52.602Z,7.7
2019-01-09T08:15:54.138Z,7.8
2019-01-09T08:16:55.674Z,7.9
2019-01-09T08:17:57.223Z,7.9
2019-01-09T08:18:58.768Z,7.9
2019-01-09T08:20:00.227Z,7.2
2019-01-09T08:21:07.084Z,7.3
2019-01-09T08:22:08.470Z,7.4
2019-01-09T08:23:10.012Z,7.5
2019-01-09T08:24:11.551Z,7.6
2019-01-09T08:25:13.074Z,7.6
2019-01-09T08:26:14.346Z,7.7
2019-01-09T08:27:15.575Z,7.7
2019-01-09T08:28:17.100Z,7.8
2019-01-09T08:29:18.637Z,7.8
2019-01-09T08:30:20.179Z,7.8
2019-01-09T08:31:21.822Z,7.8
2019-01-09T08:32:23.347Z,7.9
2019-01-09T08:33:24.783Z,7.9
2019-01-09T08:34:26.165Z,7.9
2019-01-09T08:35:27.534Z,7.9
2019-01-09T08:36:29.054Z,7.9
2019-01-09T08:37:30.280Z,7.9
2019-01-09T08:38:31.827Z,7.9
2019-01-09T08:39:33.207Z,7.9
2019-01-09T08:40:34.594Z,7.9
2019-01-09T08:41:36.131Z,7.9
2019-01-09T08:42:37.509Z,7.9
2019-01-09T08:43:38.921Z,7.9
2019-01-09T08:44:40.454Z,7.9
2019-01-09T08:45:41.977Z,7.9
2019-01-09T08:46:43.984Z,7.9
2019-01-09T08:47:45.407Z,7.9
2019-01-09T08:48:46.786Z,7.9
2019-01-09T08:49:48.426Z,7.3
2019-01-09T08:50:49.756Z,7.4
2019-01-09T08:51:51.141Z,7.4
2019-01-09T08:52:52.407Z,7.5
2019-01-09T08:53:53.946Z,7.6
2019-01-09T08:54:55.520Z,7.6
2019-01-09T08:55:56.974Z,7.6
2019-01-09T08:56:58.518Z,7.6
2019-01-09T08:57:59.900Z,7.6
2019-01-09T08:59:01.438Z,7.6
2019-01-09T09:00:02.831Z,7.6
2019-01-09T09:01:04.224Z,7.6
2019-01-09T09:02:05.646Z,7.6
2019-01-09T09:03:07.251Z,7.6
2019-01-09T09:04:08.685Z,7.6
2019-01-09T09:05:10.345Z,7.6
2019-01-09T09:06:11.730Z,7.6
2019-01-09T09:07:13.277Z,7.6
2019-01-09T09:08:14.848Z,7.5
2019-01-09T09:09:15.930Z,7.5
2019-01-09T09:10:17.492Z,7.4
2019-01-09T09:11:19.026Z,7.3
2019-01-09T09:12:20.605Z,7.2
2019-01-09T09:13:21.998Z,7.2
2019-01-09T09:14:23.607Z,7.1
2019-01-09T09:15:25.156Z,7.1
2019-01-09T09:16:26.233Z,7.1
2019-01-09T09:17:27.629Z,7.1
2019-01-09T09:18:28.856Z,7.1
2019-01-09T09:19:30.420Z,7.2
2019-01-09T09:20:32.001Z,7.2
2019-01-09T09:21:33.214Z,7.2
2019-01-09T09:22:34.611Z,7.1
2019-01-09T09:23:36.140Z,7.2
2019-01-09T09:24:37.667Z,7.1
2019-01-09T09:25:39.296Z,7.2
2019-01-09T09:26:40.832Z,7.2
2019-01-09T09:27:42.216Z,7.2
2019-01-09T09:28:43.610Z,7.2
2019-01-09T09:29:45.135Z,7.1
2019-01-09T09:30:46.658Z,7.1
2019-01-09T09:31:48.067Z,7.2
2019-01-09T09:32:49.597Z,7.2
2019-01-09T09:33:51.147Z,7.2
2019-01-09T09:34:52.696Z,7.2
2019-01-09T09:35:54.074Z,7.2
2019-01-09T09:36:55.616Z,7.2
2019-01-09T09:37:57.180Z,7.3
2019-01-09T09:38:58.563Z,7.3
2019-01-09T09:40:00.176Z,7.4
2019-01-09T09:41:01.564Z,7.5
2019-01-09T09:42:03.088Z,7.6
2019-01-09T09:43:04.625Z,7.6
2019-01-09T09:44:06.028Z,7.7
2019-01-09T09:45:07.499Z,7.8
2019-01-09T09:46:09.128Z,7.8
2019-01-09T09:47:10.513Z,7.9
2019-01-09T09:48:11.886Z,7.9
2019-01-09T09:49:13.494Z,7.2
2019-01-09T09:50:15.037Z,7.3
2019-01-09T09:51:16.568Z,7.4
2019-01-09T09:52:18.094Z,7.5
2019-01-09T09:53:19.664Z,7.6
2019-01-09T09:54:23.183Z,7.7
2019-01-09T09:55:24.781Z,7.8
2019-01-09T09:56:26.323Z,7.8
2019-01-09T09:57:27.869Z,7.9
2019-01-09T09:58:29.090Z,7.9
2019-01-09T09:59:30.630Z,7.9
2019-01-09T10:00:32.182Z,7.9
2019-01-09T10:01:33.417Z,7.9
2019-01-09T10:02:34.944Z,7.9
2019-01-09T10:03:36.510Z,7.9
2019-01-09T10:04:37.758Z,7.8
2019-01-09T10:05:39.133Z,7.8
2019-01-09T10:06:40.703Z,7.8
2019-01-09T10:07:42.076Z,7.8
2019-01-09T10:08:43.469Z,7.8
2019-01-09T10:09:44.867Z,7.7
2019-01-09T10:10:46.406Z,7.8
2019-01-09T10:11:47.988Z,7.8
2019-01-09T10:12:49.533Z,7.8
2019-01-09T10:13:50.903Z,7.8
2019-01-09T10:14:52.421Z,7.8
2019-01-09T10:15:53.975Z,7.8
2019-01-09T10:16:55.352Z,7.8
2019-01-09T10:17:56.906Z,7.8
2019-01-09T10:18:58.142Z,7.8
2019-01-09T10:19:59.707Z,7.7
2019-01-09T10:21:01.241Z,7.7
2019-01-09T10:22:02.807Z,7.7
2019-01-09T10:23:04.213Z,7.7
2019-01-09T10:24:05.603Z,7.8
2019-01-09T10:25:07.150Z,7.8
2019-01-09T10:26:08.685Z,7.8
2019-01-09T10:27:10.242Z,7.8
2019-01-09T10:28:11.788Z,7.8
2019-01-09T10:29:13.166Z,7.8
2019-01-09T10:30:14.397Z,7.8
2019-01-09T10:31:15.805Z,7.8
2019-01-09T10:32:17.342Z,7.8
2019-01-09T10:33:18.897Z,7.8
2019-01-09T10:34:20.428Z,7.8
2019-01-09T10:35:21.830Z,7.8
2019-01-09T10:36:23.367Z,7.8
2019-01-09T10:37:24.901Z,7.8
2019-01-09T10:38:26.429Z,7.8
2019-01-09T10:39:27.643Z,7.8
2019-01-09T10:40:37.707Z,7.7
2019-01-09T10:41:39.117Z,7.8
2019-01-09T10:42:40.662Z,7.9
2019-01-09T10:43:42.055Z,7.9
2019-01-09T10:44:43.645Z,7.2
2019-01-09T10:45:45.179Z,7.3
2019-01-09T10:46:46.725Z,7.3
2019-01-09T10:47:48.106Z,7.3
2019-01-09T10:48:49.494Z,7.3
2019-01-09T10:49:51.061Z,7.3
2019-01-09T10:50:52.602Z,7.2
2019-01-09T10:51:54.147Z,7.2
2019-01-09T10:52:55.074Z,7.2
2019-01-09T10:53:56.619Z,7.2
2019-01-09T10:54:58.179Z,7.1
2019-01-09T10:55:59.719Z,7.1
2019-01-09T10:57:01.283Z,7.1
2019-01-09T10:58:02.372Z,7.1
2019-01-09T10:59:04.017Z,7.1
2019-01-09T11:00:05.419Z,7.1
2019-01-09T11:01:07.075Z,7.1
2019-01-09T11:02:08.494Z,7.1
2019-01-09T11:03:10.009Z,7.1
2019-01-09T11:04:11.426Z,7.1
2019-01-09T11:05:12.795Z,7.1
2019-01-09T11:06:15.941Z,7.1
2019-01-09T11:07:17.481Z,7.2
2019-01-09T11:08:18.882Z,7.2
2019-01-09T11:09:20.449Z,7.2
2019-01-09T11:10:21.985Z,7.2
2019-01-09T11:11:23.482Z,7.2
2019-01-09T11:12:24.875Z,7.2
2019-01-09T11:13:26.443Z,7.2
2019-01-09T11:14:27.974Z,7.2
2019-01-09T11:15:29.645Z,7.2
2019-01-09T11:16:31.093Z,7.3
2019-01-09T11:17:32.667Z,7.3
2019-01-09T11:18:34.240Z,7.4
2019-01-09T11:19:35.653Z,7.5
2019-01-09T11:20:37.245Z,7.5
2019-01-09T11:21:38.826Z,7.6
2019-01-09T11:22:40.281Z,7.6
2019-01-09T11:23:41.852Z,7.7
2019-01-09T11:24:43.294Z,7.7
2019-01-09T11:25:44.853Z,7.8
2019-01-09T11:26:46.404Z,7.8
2019-01-09T11:27:47.966Z,7.9
2019-01-09T11:28:49.344Z,7.9
2019-01-09T11:29:50.566Z,7.9
2019-01-09T11:30:52.088Z,7.8
2019-01-09T11:31:53.681Z,7.8
2019-01-09T11:32:55.126Z,7.8
2019-01-09T11:33:56.675Z,7.8
2019-01-09T11:34:58.213Z,7.9
2019-01-09T11:35:59.803Z,7.9
2019-01-09T11:37:01.035Z,7.8
2019-01-09T11:38:02.603Z,7.8
2019-01-09T11:39:03.995Z,7.8
2019-01-09T11:40:05.235Z,7.8
2019-01-09T11:41:06.492Z,7.8
2019-01-09T11:42:08.031Z,7.8
2019-01-09T11:43:09.561Z,7.8
2019-01-09T11:44:25.638Z,7.8
2019-01-09T11:45:27.205Z,7.8
2019-01-09T11:46:28.755Z,7.8
2019-01-09T11:47:30.279Z,7.8
2019-01-09T11:48:31.813Z,7.8
2019-01-09T11:49:33.198Z,7.8
2019-01-09T11:50:34.760Z,7.8
2019-01-09T11:51:36.284Z,7.7
2019-01-09T11:52:37.807Z,7.6
2019-01-09T11:53:39.339Z,7.6
2019-01-09T11:54:42.813Z,7.6
2019-01-09T11:55:44.365Z,7.7
2019-01-09T11:56:45.743Z,7.7
2019-01-09T11:57:47.278Z,7.7
2019-01-09T11:58:48.655Z,7.7
2019-01-09T11:59:50.180Z,7.7
2019-01-09T12:00:51.403Z,7.6
2019-01-09T12:01:52.940Z,7.6
2019-01-09T12:02:54.346Z,7.5
2019-01-09T12:03:55.897Z,7.5
2019-01-09T12:04:57.421Z,7.5
2019-01-09T12:05:58.955Z,7.5
2019-01-09T12:07:00.341Z,7.6
2019-01-09T12:08:01.697Z,7.6
2019-01-09T12:09:06.440Z,7.6
2019-01-09T12:10:07.979Z,7.6
2019-01-09T12:11:09.709Z,7.6
2019-01-09T12:12:11.250Z,7.6
2019-01-09T12:13:12.806Z,7.6
2019-01-09T12:14:14.201Z,7.7
2019-01-09T12:15:15.585Z,7.7
2019-01-09T12:16:17.008Z,7.7
2019-01-09T12:17:18.561Z,7.8
2019-01-09T12:18:20.107Z,7.8
2019-01-09T12:19:21.515Z,7.8
2019-01-09T12:20:23.063Z,7.8
2019-01-09T12:21:24.431Z,7.8
2019-01-09T12:22:25.844Z,7.8
2019-01-09T12:23:27.421Z,7.2
2019-01-09T12:24:28.786Z,7.3
2019-01-09T12:25:30.350Z,7.3
2019-01-09T12:26:31.885Z,7.4
2019-01-09T12:27:33.438Z,7.4
2019-01-09T12:28:34.817Z,7.4
2019-01-09T12:29:36.375Z,7.4
2019-01-09T12:30:37.934Z,7.5
2019-01-09T12:31:39.570Z,7.4
2019-01-09T12:32:40.957Z,7.4
2019-01-09T12:33:42.510Z,7.3
2019-01-09T12:34:43.885Z,7.2
2019-01-09T12:35:45.455Z,7.2
2019-01-09T12:36:47.001Z,7.2
2019-01-09T12:37:48.564Z,7.1
2019-01-09T12:38:50.143Z,7.1
2019-01-09T12:39:51.536Z,7.2
2019-01-09T12:40:53.089Z,7.2
2019-01-09T12:41:54.522Z,7.2
2019-01-09T12:42:55.915Z,7.2
2019-01-09T12:43:57.325Z,7.2
2019-01-09T12:45:00.826Z,7.2
2019-01-09T12:46:02.363Z,7.2
2019-01-09T12:47:03.762Z,7.2
2019-01-09T12:48:05.170Z,7.2
2019-01-09T12:49:06.703Z,7.2
2019-01-09T12:50:08.271Z,7.2
2019-01-09T12:51:09.811Z,7.2
2019-01-09T12:52:11.269Z,7.3
2019-01-09T12:53:12.906Z,7.4
2019-01-09T12:54:14.445Z,7.5
2019-01-09T12:55:15.981Z,7.6
2019-01-09T12:56:17.511Z,7.8
2019-01-09T12:57:19.465Z,7.3
2019-01-09T12:58:21.007Z,7.5
2019-01-09T12:59:23.519Z,7.6
2019-01-09T13:00:25.072Z,7.8
2019-01-09T13:01:26.619Z,7.9
2019-01-09T13:02:28.015Z,7.9
2019-01-09T13:03:29.237Z,7.9
2019-01-09T13:04:30.788Z,7.9
2019-01-09T13:05:31.883Z,7.8
2019-01-09T13:06:33.439Z,7.9
2019-01-09T13:07:34.810Z,7.9
2019-01-09T13:08:36.193Z,7.9
2019-01-09T13:09:37.416Z,7.3
2019-01-09T13:10:38.967Z,7.4
2019-01-09T13:11:40.516Z,7.5
2019-01-09T13:12:42.064Z,7.6
2019-01-09T13:13:43.284Z,7.7
2019-01-09T13:14:44.835Z,7.7
2019-01-09T13:15:46.385Z,7.8
2019-01-09T13:16:49.385Z,7.8
2019-01-09T13:17:50.636Z,7.9
2019-01-09T13:18:52.028Z,7.9
2019-01-09T13:19:53.596Z,7.9
2019-01-09T13:20:54.985Z,7.9
2019-01-09T13:21:56.353Z,7.9
2019-01-09T13:22:57.739Z,7.9
2019-01-09T13:23:59.294Z,7.9
2019-01-09T13:25:00.781Z,7.9
2019-01-09T13:26:02.338Z,7.8
2019-01-09T13:27:03.725Z,7.8
2019-01-09T13:28:05.276Z,7.8
2019-01-09T13:29:06.697Z,7.2
2019-01-09T13:30:08.141Z,7.2
2019-01-09T13:31:09.747Z,7.3
2019-01-09T13:32:11.208Z,7.4
2019-01-09T13:33:12.780Z,7.4
2019-01-09T13:34:14.015Z,7.4
2019-01-09T13:35:17.749Z,7.4
2019-01-09T13:36:19.176Z,7.4
2019-01-09T13:37:20.409Z,7.4
2019-01-09T13:38:21.959Z,7.3
2019-01-09T13:39:32.196Z,7.3
2019-01-09T13:40:35.738Z,7.3
2019-01-09T13:41:37.327Z,7.4
2019-01-09T13:42:38.730Z,7.4
2019-01-09T13:43:39.960Z,7.4
2019-01-09T13:44:41.352Z,7.3
2019-01-09T13:45:42.742Z,7.4
2019-01-09T13:46:44.313Z,7.4
2019-01-09T13:47:45.903Z,7.4
2019-01-09T13:48:47.497Z,7.5
2019-01-09T13:49:48.886Z,7.5
2019-01-09T13:50:50.264Z,7.6
2019-01-09T13:51:51.674Z,7.6
2019-01-09T13:52:53.211Z,7.6
2019-01-09T13:53:54.764Z,7.6
2019-01-09T13:54:56.152Z,7.6
2019-01-09T13:55:57.693Z,7.6
2019-01-09T13:56:59.255Z,7.6
2019-01-09T13:58:00.626Z,7.6
2019-01-09T13:59:02.176Z,7.7
2019-01-09T14:00:03.566Z,7.7
2019-01-09T14:01:04.975Z,7.7
2019-01-09T14:02:06.530Z,7.8
2019-01-09T14:03:08.092Z,7.8
2019-01-09T14:04:09.498Z,7.8
2019-01-09T14:05:11.057Z,7.8
2019-01-09T14:06:12.625Z,7.8
2019-01-09T14:07:14.011Z,7.7
2019-01-09T14:08:15.549Z,7.7